createdAt,value
2023-10-18T00:01:11.157Z,14.95
2023-10-18T00:03:39.776Z,14.85
2023-10-18T00:06:13.712Z,14.02
2023-10-18T00:08:41.071Z,14.25
2023-10-18T00:11:09.503Z,14.23
2023-10-18T00:13:37.264Z,12.90
2023-10-18T00:16:08.514Z,17.35
2023-10-18T00:18:38.077Z,15.55
2023-10-18T00:21:09.877Z,18.67
2023-10-18T00:23:37.944Z,16.67
2023-10-18T00:28:34.203Z,15.40
2023-10-18T00:31:19.811Z,15.38
2023-10-18T00:33:46.961Z,14.80
2023-10-18T00:36:19.430Z,14.50
2023-10-18T00:38:48.510Z,18.88
2023-10-18T00:41:26.580Z,14.27
2023-10-18T00:43:55.218Z,16.90
2023-10-18T00:48:52.357Z,13.60
2023-10-18T00:51:20.334Z,13.98
2023-10-18T00:53:55.085Z,14.95
2023-10-18T00:56:22.937Z,14.10
2023-10-18T00:58:51.524Z,17.35
2023-10-18T01:01:19.812Z,16.23
2023-10-18T01:03:52.350Z,16.85
2023-10-18T01:06:28.669Z,16.48
2023-10-18T01:09:00.250Z,13.35
2023-10-18T01:11:32.714Z,16.42
2023-10-18T01:14:01.704Z,14.23
2023-10-18T01:16:33.151Z,14.95
2023-10-18T01:19:00.616Z,14.50
2023-10-18T01:21:28.598Z,16.10
2023-10-18T01:23:59.657Z,16.75
2023-10-18T01:26:29.071Z,12.05
2023-10-18T01:29:06.988Z,13.80
2023-10-18T01:31:35.061Z,13.88
2023-10-18T01:34:08.693Z,15.40
2023-10-18T01:36:40.297Z,16.95
2023-10-18T01:39:20.320Z,15.20
2023-10-18T01:42:01.641Z,15.30
2023-10-18T01:44:34.954Z,17.85
2023-10-18T01:47:15.076Z,14.45
2023-10-18T01:52:19.575Z,13.73
2023-10-18T01:54:48.147Z,17.60
2023-10-18T01:57:16.398Z,14.68
2023-10-18T01:59:46.396Z,15.20
2023-10-18T02:02:14.943Z,15.55
2023-10-18T02:04:52.085Z,16.42
2023-10-18T02:07:22.045Z,14.73
2023-10-18T02:09:54.451Z,14.95
2023-10-18T02:12:22.116Z,19.20
2023-10-18T02:14:50.146Z,16.00
2023-10-18T02:17:24.593Z,16.70
2023-10-18T02:19:53.322Z,15.85
2023-10-18T02:22:20.813Z,17.17
2023-10-18T02:24:50.934Z,18.65
2023-10-18T02:27:18.095Z,17.92
2023-10-18T02:29:46.732Z,17.77
2023-10-18T02:32:52.881Z,18.15
2023-10-18T02:35:22.656Z,14.07
2023-10-18T02:37:49.880Z,15.00
2023-10-18T02:40:32.028Z,20.33
2023-10-18T02:42:59.662Z,18.45
2023-10-18T02:45:31.392Z,17.27
2023-10-18T02:47:59.543Z,18.13
2023-10-18T02:50:26.619Z,19.52
2023-10-18T02:53:00.241Z,21.00
2023-10-18T02:55:29.264Z,14.63
2023-10-18T03:00:26.359Z,18.38
2023-10-18T03:02:53.276Z,15.77
2023-10-18T03:05:28.015Z,16.10
2023-10-18T03:07:58.831Z,17.25
2023-10-18T03:10:29.870Z,17.95
2023-10-18T03:12:57.390Z,16.50
2023-10-18T03:15:26.382Z,18.50
2023-10-18T03:17:56.069Z,20.10
2023-10-18T03:20:26.421Z,17.10
2023-10-18T03:22:56.933Z,19.30
2023-10-18T03:25:33.620Z,17.88
2023-10-18T03:28:14.841Z,17.80
2023-10-18T03:30:47.021Z,20.65
2023-10-18T03:33:14.702Z,17.95
2023-10-18T03:36:18.159Z,19.65
2023-10-18T03:38:55.185Z,18.55
2023-10-18T03:41:28.895Z,17.90
2023-10-18T03:44:05.180Z,18.65
2023-10-18T03:46:41.653Z,22.13
2023-10-18T03:49:18.182Z,19.90
2023-10-18T03:51:48.773Z,19.65
2023-10-18T03:54:16.071Z,23.85
2023-10-18T03:56:46.140Z,16.40
2023-10-18T03:59:23.358Z,18.75
2023-10-18T04:02:12.761Z,19.20
2023-10-18T04:04:50.355Z,16.45
2023-10-18T04:07:18.640Z,17.58
2023-10-18T04:09:56.653Z,20.83
2023-10-18T04:12:25.844Z,17.88
2023-10-18T04:15:02.584Z,20.88
2023-10-18T04:17:36.829Z,15.65
2023-10-18T04:20:17.105Z,20.38
2023-10-18T04:22:50.949Z,15.85
2023-10-18T04:25:27.317Z,19.67
2023-10-18T04:28:01.225Z,18.02
2023-10-18T04:30:31.982Z,20.23
2023-10-18T04:33:05.401Z,18.63
2023-10-18T04:35:38.644Z,20.92
2023-10-18T04:38:08.976Z,19.88
2023-10-18T04:40:38.156Z,19.88
2023-10-18T04:43:11.922Z,20.10
2023-10-18T04:45:38.900Z,18.10
2023-10-18T04:48:17.082Z,17.80
2023-10-18T04:50:52.279Z,20.30
2023-10-18T04:53:24.881Z,19.25
2023-10-18T04:56:01.390Z,19.50
2023-10-18T04:58:31.796Z,19.50
2023-10-18T05:00:59.233Z,21.88
2023-10-18T05:03:31.974Z,20.63
2023-10-18T05:05:59.235Z,18.30
2023-10-18T05:08:26.365Z,16.05
2023-10-18T05:11:07.560Z,17.23
2023-10-18T05:13:34.486Z,20.58
2023-10-18T05:16:06.614Z,18.80
2023-10-18T05:18:33.795Z,21.40
2023-10-18T05:21:04.240Z,23.77
2023-10-18T05:23:35.594Z,18.77
2023-10-18T05:26:27.677Z,16.02
2023-10-18T05:29:05.106Z,20.58
2023-10-18T05:32:08.544Z,19.52
2023-10-18T05:35:06.408Z,18.17
2023-10-18T05:37:42.489Z,21.38
2023-10-18T05:40:36.511Z,19.30
2023-10-18T05:43:14.128Z,17.80
2023-10-18T05:45:43.738Z,18.83
2023-10-18T05:48:24.575Z,19.83
2023-10-18T05:53:41.970Z,17.33
2023-10-18T05:56:09.144Z,17.20
2023-10-18T05:58:38.497Z,23.90
2023-10-18T06:01:09.206Z,19.30
2023-10-18T06:03:42.607Z,17.60
2023-10-18T06:06:10.300Z,21.33
2023-10-18T06:08:38.442Z,19.88
2023-10-18T06:11:09.162Z,20.33
2023-10-18T06:13:42.452Z,19.08
2023-10-18T06:16:21.329Z,20.30
2023-10-18T06:18:51.115Z,14.70
2023-10-18T06:21:21.469Z,17.48
2023-10-18T06:23:57.340Z,17.05
2023-10-18T06:26:34.729Z,17.65
2023-10-18T06:29:14.113Z,24.80
2023-10-18T06:31:41.958Z,18.73
2023-10-18T06:34:17.757Z,16.10
2023-10-18T06:36:55.155Z,17.10
2023-10-18T06:39:38.907Z,15.82
2023-10-18T06:42:11.089Z,17.27
2023-10-18T06:44:38.290Z,17.55
2023-10-18T06:47:08.979Z,19.05
2023-10-18T06:49:36.669Z,18.50
2023-10-18T06:52:08.781Z,19.42
2023-10-18T06:54:40.423Z,18.45
2023-10-18T06:57:33.433Z,19.35
2023-10-18T07:00:00.491Z,17.20
2023-10-18T07:02:31.459Z,21.80
2023-10-18T07:05:02.551Z,16.48
2023-10-18T07:07:31.657Z,18.10
2023-10-18T07:10:01.069Z,21.00
2023-10-18T07:12:29.172Z,17.15
2023-10-18T07:14:59.308Z,18.33
2023-10-18T07:17:26.474Z,19.38
2023-10-18T07:19:59.633Z,23.77
2023-10-18T07:22:41.158Z,20.13
2023-10-18T07:25:10.865Z,16.85
2023-10-18T07:27:41.905Z,18.95
2023-10-18T07:30:15.707Z,20.83
2023-10-18T07:32:43.740Z,19.80
2023-10-18T07:35:28.069Z,17.92
2023-10-18T07:37:58.522Z,17.15
2023-10-18T07:40:35.153Z,19.02
2023-10-18T07:43:06.449Z,15.18
2023-10-18T07:45:37.409Z,15.02
2023-10-18T07:48:07.423Z,13.77
2023-10-18T07:50:43.302Z,16.17
2023-10-18T07:53:13.242Z,15.93
2023-10-18T07:55:43.485Z,16.08
2023-10-18T07:58:24.859Z,15.25
2023-10-18T08:01:05.883Z,16.38
2023-10-18T08:03:34.584Z,14.63
2023-10-18T08:06:08.516Z,16.77
2023-10-18T08:08:37.970Z,18.45
2023-10-18T08:11:08.012Z,17.95
2023-10-18T08:13:44.566Z,12.48
2023-10-18T08:16:40.865Z,16.27
2023-10-18T08:19:08.879Z,17.45
2023-10-18T08:21:41.063Z,15.65
2023-10-18T08:24:22.281Z,14.50
2023-10-18T08:26:49.708Z,15.48
2023-10-18T08:29:18.244Z,15.13
2023-10-18T08:31:50.326Z,16.50
2023-10-18T08:34:19.896Z,18.92
2023-10-18T08:36:46.967Z,16.10
2023-10-18T08:39:15.371Z,16.73
2023-10-18T08:41:57.820Z,13.90
2023-10-18T08:44:26.600Z,12.15
2023-10-18T08:47:05.330Z,18.35
2023-10-18T08:49:36.498Z,12.82
2023-10-18T08:52:11.425Z,15.10
2023-10-18T08:54:43.601Z,14.65
2023-10-18T08:57:35.080Z,13.48
2023-10-18T09:00:19.437Z,15.27
2023-10-18T09:02:49.367Z,11.88
2023-10-18T09:05:16.484Z,14.18
2023-10-18T09:07:44.454Z,14.93
2023-10-18T09:10:35.528Z,14.85
2023-10-18T09:13:17.509Z,14.95
2023-10-18T09:16:01.693Z,13.68
2023-10-18T09:18:34.547Z,11.82
2023-10-18T09:21:20.849Z,12.27
2023-10-18T09:23:51.117Z,13.57
2023-10-18T09:26:27.865Z,13.52
2023-10-18T09:29:01.413Z,12.60
2023-10-18T09:31:29.759Z,10.85
2023-10-18T09:34:01.120Z,13.10
2023-10-18T09:36:30.947Z,13.95
2023-10-18T09:39:10.294Z,14.02
2023-10-18T09:41:39.917Z,12.60
2023-10-18T09:44:12.492Z,13.88
2023-10-18T09:49:21.094Z,12.27
2023-10-18T09:51:56.579Z,14.18
2023-10-18T09:54:25.944Z,12.95
2023-10-18T09:57:00.602Z,15.80
2023-10-18T09:59:42.742Z,16.75
2023-10-18T10:02:16.670Z,11.80
2023-10-18T10:04:45.544Z,11.35
2023-10-18T10:07:31.764Z,11.90
2023-10-18T10:10:11.842Z,13.45
2023-10-18T10:12:43.674Z,14.00
2023-10-18T10:15:19.277Z,10.57
2023-10-18T10:17:58.445Z,9.90
2023-10-18T10:20:34.722Z,8.38
2023-10-18T10:23:05.784Z,11.90
2023-10-18T10:25:40.319Z,9.20
2023-10-18T10:29:02.604Z,11.57
2023-10-18T10:31:54.678Z,9.68
2023-10-18T10:34:37.994Z,10.48
2023-10-18T10:37:15.485Z,11.68
2023-10-18T10:40:04.810Z,12.30
2023-10-18T10:42:50.844Z,10.70
2023-10-18T10:45:40.264Z,11.18
2023-10-18T10:48:16.677Z,8.77
2023-10-18T10:50:58.280Z,12.85
2023-10-18T10:53:31.475Z,11.20
2023-10-18T10:55:59.019Z,10.18
2023-10-18T10:58:33.519Z,7.80
2023-10-18T11:01:01.442Z,8.02
2023-10-18T11:03:55.328Z,10.02
2023-10-18T11:06:28.379Z,8.10
2023-10-18T11:08:59.737Z,10.13
2023-10-18T11:11:30.572Z,8.30
2023-10-18T11:13:58.022Z,9.57
2023-10-18T11:16:26.334Z,8.88
2023-10-18T11:18:55.955Z,10.10
2023-10-18T11:21:27.746Z,7.43
2023-10-18T11:24:11.677Z,8.93
2023-10-18T11:26:45.192Z,8.90
2023-10-18T11:29:14.344Z,11.07
2023-10-18T11:31:46.341Z,8.55
2023-10-18T11:34:23.501Z,8.73
2023-10-18T11:36:51.646Z,9.82
2023-10-18T11:39:31.377Z,6.13
2023-10-18T11:44:34.818Z,8.65
2023-10-18T11:47:21.190Z,5.50
2023-10-18T11:49:54.999Z,7.63
2023-10-18T11:52:23.689Z,7.72
2023-10-18T11:54:53.605Z,7.15
2023-10-18T11:57:47.937Z,8.13
2023-10-18T12:00:28.759Z,6.93
2023-10-18T12:05:25.231Z,6.57
2023-10-18T12:07:55.707Z,8.77
2023-10-18T12:10:36.347Z,6.55
2023-10-18T12:13:07.754Z,7.13
2023-10-18T12:15:36.699Z,9.75
2023-10-18T12:18:05.986Z,9.25
2023-10-18T12:20:37.237Z,6.70
2023-10-18T12:23:20.230Z,7.60
2023-10-18T12:25:48.062Z,7.45
2023-10-18T12:28:20.398Z,8.05
2023-10-18T12:30:56.545Z,7.72
2023-10-18T12:33:30.255Z,7.28
2023-10-18T12:35:58.016Z,7.00
2023-10-18T12:38:34.365Z,7.10
2023-10-18T12:41:17.113Z,7.07
2023-10-18T12:43:47.055Z,9.50
2023-10-18T12:46:23.231Z,9.68
2023-10-18T12:48:57.978Z,7.55
2023-10-18T12:53:59.790Z,8.70
2023-10-18T12:56:30.139Z,6.53
2023-10-18T12:59:07.184Z,7.75
2023-10-18T13:01:47.533Z,8.32
2023-10-18T13:06:48.456Z,7.80
2023-10-18T13:09:19.854Z,10.60
2023-10-18T13:12:02.274Z,6.75
2023-10-18T13:14:35.315Z,7.60
2023-10-18T13:17:07.383Z,8.75
2023-10-18T13:19:35.150Z,8.80
2023-10-18T13:22:02.283Z,9.82
2023-10-18T13:24:32.975Z,7.13
2023-10-18T13:27:09.308Z,7.03
2023-10-18T13:29:36.682Z,6.65
2023-10-18T13:32:12.515Z,5.72
2023-10-18T13:34:41.932Z,9.77
2023-10-18T13:37:12.028Z,7.47
2023-10-18T13:39:49.610Z,5.85
2023-10-18T13:42:16.658Z,6.95
2023-10-18T13:44:45.031Z,7.57
2023-10-18T13:47:14.168Z,6.82
2023-10-18T13:49:46.018Z,7.10
2023-10-18T13:52:13.868Z,9.75
2023-10-18T13:54:42.493Z,6.93
2023-10-18T13:57:09.846Z,6.90
2023-10-18T13:59:40.027Z,4.55
2023-10-18T14:02:12.443Z,9.20
2023-10-18T14:04:41.271Z,6.13
2023-10-18T14:07:08.842Z,6.07
2023-10-18T14:09:36.743Z,6.75
2023-10-18T14:12:05.908Z,8.63
2023-10-18T14:14:50.289Z,7.32
2023-10-18T14:17:20.463Z,6.43
2023-10-18T14:20:12.539Z,7.63
2023-10-18T14:22:46.337Z,6.47
2023-10-18T14:25:17.897Z,7.28
2023-10-18T14:27:50.362Z,7.53
2023-10-18T14:30:18.999Z,7.95
2023-10-18T14:32:56.692Z,7.93
2023-10-18T14:35:26.673Z,10.40
2023-10-18T14:38:02.179Z,6.18
2023-10-18T14:40:39.874Z,8.88
2023-10-18T14:43:08.184Z,7.00
2023-10-18T14:45:36.341Z,9.48
2023-10-18T14:50:58.380Z,7.90
2023-10-18T14:53:28.529Z,7.22
2023-10-18T14:56:20.117Z,4.88
2023-10-18T14:58:50.380Z,7.75
2023-10-18T15:01:23.279Z,5.95
2023-10-18T15:03:51.753Z,5.05
2023-10-18T15:06:21.218Z,6.18
2023-10-18T15:08:56.439Z,5.85
2023-10-18T15:11:26.535Z,6.60
2023-10-18T15:14:00.194Z,7.05
2023-10-18T15:16:32.663Z,5.78
2023-10-18T15:18:59.940Z,5.85
2023-10-18T15:21:28.348Z,8.00
2023-10-18T15:23:55.920Z,9.90
2023-10-18T15:26:28.741Z,8.95
2023-10-18T15:28:57.566Z,8.65
2023-10-18T15:34:26.477Z,6.55
2023-10-18T15:36:54.677Z,7.72
2023-10-18T15:39:24.999Z,6.07
2023-10-18T15:41:52.960Z,5.45
2023-10-18T15:44:32.197Z,6.32
2023-10-18T15:47:02.345Z,6.57
2023-10-18T15:49:51.614Z,7.50
2023-10-18T15:52:22.197Z,8.00
2023-10-18T15:54:51.007Z,5.18
2023-10-18T15:57:18.639Z,7.85
2023-10-18T15:59:45.610Z,6.28
2023-10-18T16:02:40.733Z,6.55
2023-10-18T16:05:11.238Z,5.70
2023-10-18T16:08:34.523Z,4.53
2023-10-18T16:11:08.443Z,7.38
2023-10-18T16:14:07.528Z,7.82
2023-10-18T16:16:35.328Z,9.30
2023-10-18T16:19:08.802Z,4.18
2023-10-18T16:21:45.237Z,8.63
2023-10-18T16:24:14.378Z,6.20
2023-10-18T16:26:41.652Z,10.73
2023-10-18T16:29:09.460Z,6.78
2023-10-18T16:31:37.815Z,4.90
2023-10-18T16:34:08.187Z,5.35
2023-10-18T16:36:35.180Z,5.60
2023-10-18T16:39:02.642Z,5.32
2023-10-18T16:41:29.634Z,4.53
2023-10-18T16:43:59.847Z,7.85
2023-10-18T16:46:28.164Z,5.32
2023-10-18T16:48:56.723Z,8.80
2023-10-18T16:51:27.128Z,7.68
2023-10-18T16:53:54.274Z,7.55
2023-10-18T16:56:22.990Z,4.90
2023-10-18T16:58:51.608Z,7.70
2023-10-18T17:03:54.316Z,5.38
2023-10-18T17:06:21.781Z,5.55
2023-10-18T17:08:50.942Z,5.18
2023-10-18T17:11:19.729Z,6.38
2023-10-18T17:13:52.733Z,8.13
2023-10-18T17:16:23.868Z,4.95
2023-10-18T17:18:56.930Z,6.90
2023-10-18T17:21:25.346Z,5.80
2023-10-18T17:23:53.604Z,6.15
2023-10-18T17:28:50.115Z,6.28
2023-10-18T17:31:22.016Z,7.25
2023-10-18T17:33:49.164Z,5.03
2023-10-18T17:36:20.547Z,8.95
2023-10-18T17:38:48.704Z,7.13
2023-10-18T17:41:20.964Z,5.97
2023-10-18T17:43:50.999Z,7.05
2023-10-18T17:46:20.565Z,5.93
2023-10-18T17:49:23.953Z,8.00
2023-10-18T17:51:53.820Z,7.88
2023-10-18T17:54:23.291Z,5.03
2023-10-18T17:56:52.816Z,10.60
2023-10-18T17:59:21.128Z,6.68
2023-10-18T18:01:54.380Z,5.10
2023-10-18T18:04:22.937Z,6.43
2023-10-18T18:06:52.589Z,4.22
2023-10-18T18:09:24.666Z,5.40
2023-10-18T18:11:53.013Z,5.78
2023-10-18T18:16:51.676Z,5.07
2023-10-18T18:19:22.368Z,6.47
2023-10-18T18:21:50.018Z,6.40
2023-10-18T18:24:18.062Z,5.70
2023-10-18T18:26:50.558Z,5.72
2023-10-18T18:29:21.325Z,3.63
2023-10-18T18:31:49.660Z,6.25
2023-10-18T18:34:17.931Z,6.70
2023-10-18T18:39:13.686Z,8.27
2023-10-18T18:41:42.102Z,3.80
2023-10-18T18:44:09.474Z,5.75
2023-10-18T18:46:39.538Z,5.13
2023-10-18T18:49:08.950Z,7.32
2023-10-18T18:51:37.520Z,6.55
2023-10-18T18:54:04.968Z,6.13
2023-10-18T18:56:31.870Z,5.32
2023-10-18T18:58:58.880Z,6.78
2023-10-18T19:01:27.986Z,4.32
2023-10-18T19:03:58.679Z,5.57
2023-10-18T19:06:28.113Z,6.20
2023-10-18T19:08:55.569Z,6.88
2023-10-18T19:11:27.737Z,3.80
2023-10-18T19:13:56.438Z,5.05
2023-10-18T19:16:26.557Z,6.70
2023-10-18T19:18:58.036Z,3.78
2023-10-18T19:21:28.392Z,4.78
2023-10-18T19:23:58.199Z,6.57
2023-10-18T19:26:25.604Z,3.85
2023-10-18T19:28:52.927Z,4.50
2023-10-18T19:31:22.090Z,6.43
2023-10-18T19:33:55.941Z,3.85
2023-10-18T19:36:28.690Z,4.68
2023-10-18T19:38:59.551Z,4.85
2023-10-18T19:41:28.197Z,5.22
2023-10-18T19:43:55.507Z,5.68
2023-10-18T19:48:58.575Z,4.75
2023-10-18T19:53:52.591Z,3.90
2023-10-18T19:56:19.823Z,3.75
2023-10-18T19:58:47.188Z,4.43
2023-10-18T20:01:15.168Z,4.20
2023-10-18T20:03:42.180Z,3.45
2023-10-18T20:06:13.725Z,4.88
2023-10-18T20:08:40.908Z,7.07
2023-10-18T20:11:12.187Z,4.05
2023-10-18T20:13:40.092Z,4.82
2023-10-18T20:16:12.344Z,4.63
2023-10-18T20:18:40.959Z,5.05
2023-10-18T20:21:17.872Z,3.63
2023-10-18T20:23:44.906Z,4.47
2023-10-18T20:26:16.846Z,4.07
2023-10-18T20:28:44.189Z,4.80
2023-10-18T20:36:06.684Z,6.10
2023-10-18T20:38:34.546Z,4.57
2023-10-18T20:41:01.484Z,5.32
2023-10-18T20:43:31.374Z,5.97
2023-10-18T20:46:26.762Z,7.32
2023-10-18T20:48:59.458Z,5.55
2023-10-18T20:51:26.447Z,6.10
2023-10-18T20:53:58.547Z,4.13
2023-10-18T20:56:28.226Z,10.70
2023-10-18T20:58:56.899Z,6.43
2023-10-18T21:01:29.721Z,4.95
2023-10-18T21:03:59.687Z,7.25
2023-10-18T21:06:32.044Z,7.65
2023-10-18T21:09:00.488Z,7.10
2023-10-18T21:11:27.311Z,6.93
2023-10-18T21:13:54.730Z,5.80
2023-10-18T21:16:22.036Z,4.70
2023-10-18T21:18:51.051Z,5.57
2023-10-18T21:21:20.950Z,4.47
2023-10-18T21:23:50.369Z,4.28
2023-10-18T21:26:17.637Z,6.57
2023-10-18T21:28:46.530Z,7.93
2023-10-18T21:31:15.929Z,6.45
2023-10-18T21:33:44.206Z,6.30
2023-10-18T21:36:14.005Z,5.03
2023-10-18T21:38:43.364Z,5.70
2023-10-18T21:41:29.318Z,4.65
2023-10-18T21:43:57.879Z,5.13
2023-10-18T21:46:25.229Z,7.85
2023-10-18T21:48:52.647Z,4.40
2023-10-18T21:51:21.300Z,5.78
2023-10-18T21:53:53.172Z,8.15
2023-10-18T21:56:21.038Z,5.90
2023-10-18T21:58:49.877Z,5.63
2023-10-18T22:01:37.517Z,7.95
2023-10-18T22:04:05.465Z,6.13
2023-10-18T22:06:35.455Z,4.75
2023-10-18T22:09:25.827Z,7.28
2023-10-18T22:11:57.518Z,9.65
2023-10-18T22:14:27.665Z,6.28
2023-10-18T22:16:56.784Z,6.03
2023-10-18T22:19:29.206Z,6.50
2023-10-18T22:21:57.552Z,6.25
2023-10-18T22:24:29.041Z,6.72
2023-10-18T22:26:59.077Z,5.82
2023-10-18T22:29:30.964Z,6.95
2023-10-18T22:32:16.122Z,7.10
2023-10-18T22:34:45.537Z,5.68
2023-10-18T22:37:16.292Z,5.88
2023-10-18T22:39:45.209Z,6.50
2023-10-18T22:42:23.223Z,8.25
2023-10-18T22:45:09.696Z,6.53
2023-10-18T22:47:52.572Z,10.30
2023-10-18T22:50:28.168Z,9.88
2023-10-18T22:53:15.208Z,8.77
2023-10-18T22:55:48.427Z,9.02
2023-10-18T22:58:18.542Z,7.95
2023-10-18T23:00:50.265Z,13.15
2023-10-18T23:03:17.655Z,7.97
2023-10-18T23:05:47.962Z,9.23
2023-10-18T23:08:24.576Z,8.07
2023-10-18T23:10:57.657Z,10.20
2023-10-18T23:13:25.712Z,10.32
2023-10-18T23:15:58.550Z,7.88
2023-10-18T23:18:37.370Z,7.82
2023-10-18T23:21:13.583Z,8.10
2023-10-18T23:24:16.703Z,6.95
2023-10-18T23:27:02.496Z,8.30
2023-10-18T23:29:38.913Z,9.82
2023-10-18T23:32:19.337Z,7.30
2023-10-18T23:34:57.340Z,6.47
2023-10-18T23:37:37.286Z,6.57
2023-10-18T23:40:16.951Z,8.82
2023-10-18T23:42:53.081Z,9.05
2023-10-18T23:45:21.785Z,8.38
2023-10-18T23:47:50.644Z,10.63
2023-10-18T23:50:44.083Z,8.10
2023-10-18T23:53:15.035Z,10.10
2023-10-18T23:55:56.612Z,8.88
2023-10-18T23:58:30.732Z,7.78
